Eastville, Pennsylvania
Current Conditions -  °F | °C
As of 5:09 AM on Sunday 25 Jan 2015 (Local Time) from KIPT Reporting Station
Overcast Overcast  
Wind Chill: 27°   Ceiling: 3000
Heat Index: 35°   Visibility: 10mi
Dew Point: 29°   Wind: 10mph
Humidity: 78%   Direction: 270°W
Pressure: 29.64"   Gusts: NA
Location:  41.029°N, 77.3175°W
Report Text: KIPT 251009Z AUTO 27009KT 10SM BKN030 BKN039 OVC047 02/M02 A2964 RMK AO2 T00171017
Loading
Personal Weather Stations






























Interactive Weather Map New forecast layout! Learn more

10-Day Weather Forecast

Advertisements
Track Severe Weather on mobile